createdAt,value
2017-06-25T00:00:08.930Z,43.91
2017-06-25T00:01:18.562Z,43.93
2017-06-25T00:02:28.336Z,43.91
2017-06-25T00:03:37.965Z,43.91
2017-06-25T00:04:47.904Z,43.91
2017-06-25T00:05:58.131Z,43.91
2017-06-25T00:07:07.782Z,43.91
2017-06-25T00:08:17.878Z,43.91
2017-06-25T00:09:27.814Z,43.93
2017-06-25T00:10:37.447Z,43.82
2017-06-25T00:11:47.092Z,43.91
2017-06-25T00:12:57.347Z,43.82
2017-06-25T00:14:07.355Z,43.93
2017-06-25T00:15:17.595Z,43.82
2017-06-25T00:16:27.841Z,43.91
2017-06-25T00:17:37.762Z,43.82
2017-06-25T00:18:47.706Z,43.72
2017-06-25T00:19:57.791Z,43.72
2017-06-25T00:21:07.409Z,43.72
2017-06-25T00:22:17.349Z,43.72
2017-06-25T00:23:27.283Z,43.62
2017-06-25T00:24:37.206Z,43.82
2017-06-25T00:25:47.281Z,43.82
2017-06-25T00:26:55.992Z,43.82
2017-06-25T00:28:06.213Z,43.91
2017-06-25T00:29:16.469Z,43.72
2017-06-25T00:30:25.796Z,43.82
2017-06-25T00:31:35.262Z,43.72
2017-06-25T00:32:45.509Z,43.62
2017-06-25T00:33:55.818Z,43.82
2017-06-25T00:35:05.880Z,43.82
2017-06-25T00:36:16.358Z,43.72
2017-06-25T00:37:26.742Z,43.72
2017-06-25T00:38:36.980Z,43.72
2017-06-25T00:39:46.929Z,43.82
2017-06-25T00:40:56.868Z,43.72
2017-06-25T00:42:06.804Z,43.82
2017-06-25T00:43:17.217Z,43.91
2017-06-25T00:44:27.477Z,43.72
2017-06-25T00:45:37.730Z,43.72
2017-06-25T00:46:47.645Z,43.72
2017-06-25T00:47:57.873Z,43.91
2017-06-25T00:49:07.501Z,43.72
2017-06-25T00:50:17.417Z,43.82
2017-06-25T00:51:28.023Z,43.82
2017-06-25T00:52:37.648Z,43.82
2017-06-25T00:53:46.652Z,43.82
2017-06-25T00:54:56.587Z,43.82
2017-06-25T00:56:06.546Z,43.72
2017-06-25T00:57:16.485Z,43.72
2017-06-25T00:58:26.750Z,43.82
2017-06-25T00:59:36.696Z,43.72
2017-06-25T01:00:46.467Z,43.72
2017-06-25T01:01:56.098Z,43.72
2017-06-25T01:03:06.029Z,43.72
2017-06-25T01:04:15.646Z,43.82
2017-06-25T01:05:25.564Z,43.72
2017-06-25T01:06:35.332Z,44.01
2017-06-25T01:07:45.558Z,44.2
2017-06-25T01:08:55.485Z,43.72
2017-06-25T01:10:05.102Z,44.1
2017-06-25T01:11:15.027Z,44.1
2017-06-25T01:12:24.961Z,44.4
2017-06-25T01:13:34.893Z,44.3
2017-06-25T01:14:45.128Z,44.3
2017-06-25T01:15:54.764Z,44.3
2017-06-25T01:17:04.729Z,44.3
2017-06-25T01:18:15.025Z,44.3
2017-06-25T01:19:25.253Z,44.3
2017-06-25T01:20:35.177Z,44.3
2017-06-25T01:21:44.815Z,44.3
2017-06-25T01:22:54.750Z,44.3
2017-06-25T01:24:04.978Z,44.2
2017-06-25T01:25:14.286Z,44.2
2017-06-25T01:26:24.208Z,44.3
2017-06-25T01:27:34.451Z,44.3
2017-06-25T01:28:44.373Z,44.3
2017-06-25T01:29:54.471Z,44.3
2017-06-25T01:31:03.772Z,44.3
2017-06-25T01:32:13.729Z,44.2
2017-06-25T01:33:23.992Z,44.3
2017-06-25T01:34:34.232Z,44.2
2017-06-25T01:35:44.165Z,44.3
2017-06-25T01:36:54.398Z,44.2
2017-06-25T01:38:04.626Z,44.2
2017-06-25T01:39:14.869Z,44.1
2017-06-25T01:40:24.493Z,44.3
2017-06-25T01:41:35.029Z,44.3
2017-06-25T01:42:44.031Z,44.3
2017-06-25T01:43:53.954Z,44.3
2017-06-25T01:45:04.192Z,44.3
2017-06-25T01:46:13.821Z,44.3
2017-06-25T01:47:23.295Z,44.3
2017-06-25T01:48:32.900Z,44.3
2017-06-25T01:49:43.129Z,44.2
2017-06-25T01:50:53.058Z,44.3
2017-06-25T01:52:02.989Z,44.3
2017-06-25T01:53:11.732Z,44.2
2017-06-25T01:54:21.355Z,44.1
2017-06-25T01:55:31.590Z,44.2
2017-06-25T01:56:41.519Z,44.2
2017-06-25T01:57:51.172Z,44.1
2017-06-25T01:59:00.794Z,44.2
2017-06-25T02:00:10.411Z,44.01
2017-06-25T02:01:20.330Z,44.01
2017-06-25T02:02:30.262Z,44.1
2017-06-25T02:03:40.203Z,44.1
2017-06-25T02:04:50.134Z,44.1
2017-06-25T02:05:59.758Z,44.1
2017-06-25T02:07:09.697Z,44.01
2017-06-25T02:08:19.944Z,44.2
2017-06-25T02:09:29.570Z,44.01
2017-06-25T02:10:39.677Z,44.3
2017-06-25T02:11:49.902Z,44.2
2017-06-25T02:13:00.161Z,44.4
2017-06-25T02:14:10.087Z,44.2
2017-06-25T02:15:20.051Z,44.01
2017-06-25T02:16:29.996Z,44.3
2017-06-25T02:17:39.928Z,44.4
2017-06-25T02:18:49.241Z,44.3
2017-06-25T02:19:59.169Z,44.37
2017-06-25T02:21:08.826Z,44.47
2017-06-25T02:22:19.424Z,44.27
2017-06-25T02:23:29.061Z,44.67
2017-06-25T02:24:38.992Z,44.47
2017-06-25T02:25:48.911Z,45.05
2017-06-25T02:26:58.881Z,44.67
2017-06-25T02:28:09.284Z,44.67
2017-06-25T02:29:19.227Z,44.76
2017-06-25T02:30:28.847Z,44.96
2017-06-25T02:31:38.167Z,44.96
2017-06-25T02:32:47.824Z,44.76
2017-06-25T02:33:58.067Z,44.37
2017-06-25T02:35:08.321Z,44.47
2017-06-25T02:36:18.259Z,44.47
2017-06-25T02:37:27.890Z,44.47
2017-06-25T02:38:38.150Z,44.47
2017-06-25T02:39:48.425Z,44.27
2017-06-25T02:40:58.670Z,44.37
2017-06-25T02:42:08.610Z,44.67
2017-06-25T02:43:18.855Z,44.37
2017-06-25T02:44:29.096Z,44.18
2017-06-25T02:45:39.411Z,44.27
2017-06-25T02:46:49.363Z,44.4
2017-06-25T02:47:59.291Z,44.18
2017-06-25T02:49:09.541Z,44.76
2017-06-25T02:50:19.179Z,44.27
2017-06-25T02:51:29.201Z,44.18
2017-06-25T02:52:39.130Z,44.27
2017-06-25T02:53:48.454Z,44.2
2017-06-25T02:54:58.693Z,44.18
2017-06-25T02:56:08.327Z,44.2
2017-06-25T02:57:17.636Z,43.99
2017-06-25T02:58:26.955Z,44.3
2017-06-25T02:59:36.583Z,44.2
2017-06-25T03:00:46.859Z,44.37
2017-06-25T03:01:56.161Z,44.47
2017-06-25T03:03:06.234Z,44.2
2017-06-25T03:04:16.180Z,44.18
2017-06-25T03:05:26.126Z,44.47
2017-06-25T03:06:36.100Z,44.4
2017-06-25T03:07:46.316Z,44.18
2017-06-25T03:08:56.250Z,44.47
2017-06-25T03:10:06.187Z,44.37
2017-06-25T03:11:16.127Z,44.18
2017-06-25T03:12:26.055Z,44.78
2017-06-25T03:13:36.278Z,44.4
2017-06-25T03:14:46.668Z,44.18
2017-06-25T03:15:56.924Z,44.18
2017-06-25T03:17:06.853Z,44.37
2017-06-25T03:18:16.787Z,44.49
2017-06-25T03:19:27.010Z,44.3
2017-06-25T03:20:37.256Z,44.47
2017-06-25T03:21:47.555Z,44.59
2017-06-25T03:22:57.471Z,44.18
2017-06-25T03:24:07.718Z,44.47
2017-06-25T03:25:17.975Z,44.18
2017-06-25T03:26:28.388Z,44.18
2017-06-25T03:27:38.309Z,44.37
2017-06-25T03:28:48.244Z,44.18
2017-06-25T03:29:58.207Z,44.18
2017-06-25T03:31:08.151Z,44.18
2017-06-25T03:32:17.878Z,44.47
2017-06-25T03:33:27.824Z,44.47
2017-06-25T03:34:37.765Z,44.37
2017-06-25T03:35:47.686Z,44.37
2017-06-25T03:36:57.620Z,44.18
2017-06-25T03:38:07.304Z,44.18
2017-06-25T03:39:17.552Z,44.57
2017-06-25T03:40:27.476Z,44.37
2017-06-25T03:41:37.717Z,44.47
2017-06-25T03:42:47.970Z,44.27
2017-06-25T03:43:57.599Z,44.09
2017-06-25T03:45:07.215Z,44.47
2017-06-25T03:46:16.895Z,44.27
2017-06-25T03:47:26.840Z,44.27
2017-06-25T03:48:36.757Z,44.27
2017-06-25T03:49:46.530Z,44.09
2017-06-25T03:50:56.155Z,44.47
2017-06-25T03:52:06.090Z,44.57
2017-06-25T03:53:16.314Z,44.09
2017-06-25T03:54:25.930Z,44.27
2017-06-25T03:55:35.763Z,44.57
2017-06-25T03:56:46.006Z,44.57
2017-06-25T03:57:55.669Z,44.3
2017-06-25T03:59:05.907Z,44.27
2017-06-25T04:00:15.826Z,44.18
2017-06-25T04:01:26.242Z,44.27
2017-06-25T04:02:36.466Z,44.47
2017-06-25T04:03:46.392Z,44.18
2017-06-25T04:04:56.339Z,44.18
2017-06-25T04:06:05.654Z,44.37
2017-06-25T04:07:15.335Z,44.37
2017-06-25T04:08:25.266Z,44.86
2017-06-25T04:09:35.180Z,44.96
2017-06-25T04:10:44.825Z,44.86
2017-06-25T04:11:55.077Z,44.86
2017-06-25T04:13:04.991Z,44.93
2017-06-25T04:14:15.231Z,45.15
2017-06-25T04:15:25.474Z,45.13
2017-06-25T04:16:35.734Z,45.32
2017-06-25T04:17:45.977Z,45.42
2017-06-25T04:18:55.913Z,45.22
2017-06-25T04:20:05.842Z,45.61
2017-06-25T04:21:15.764Z,45.22
2017-06-25T04:22:25.721Z,45.13
2017-06-25T04:23:35.964Z,45.42
2017-06-25T04:24:46.318Z,45.71
2017-06-25T04:25:55.927Z,45.81
2017-06-25T04:27:05.573Z,45.81
2017-06-25T04:28:15.498Z,45.42
2017-06-25T04:29:25.461Z,45.32
2017-06-25T04:30:35.181Z,45.22
2017-06-25T04:31:45.420Z,45.22
2017-06-25T04:32:55.686Z,45.42
2017-06-25T04:34:05.926Z,45.51
2017-06-25T04:35:15.546Z,45.71
2017-06-25T04:36:25.492Z,45.51
2017-06-25T04:37:35.434Z,45.51
2017-06-25T04:38:45.387Z,45.42
2017-06-25T04:39:55.034Z,45.22
2017-06-25T04:41:04.961Z,45.42
2017-06-25T04:42:14.570Z,45.22
2017-06-25T04:43:24.511Z,45.42
2017-06-25T04:44:33.839Z,45.42
2017-06-25T04:45:43.777Z,45.42
2017-06-25T04:46:53.116Z,45.32
2017-06-25T04:48:03.043Z,45.13
2017-06-25T04:49:12.983Z,45.22
2017-06-25T04:50:23.226Z,45.13
2017-06-25T04:51:33.472Z,45.32
2017-06-25T04:52:43.381Z,45.22
2017-06-25T04:53:53.725Z,45.32
2017-06-25T04:55:03.652Z,45.22
2017-06-25T04:56:13.901Z,45.61
2017-06-25T04:57:23.852Z,45.42
2017-06-25T04:58:33.808Z,45.9
2017-06-25T04:59:43.491Z,45.32
2017-06-25T05:00:53.453Z,45.42
2017-06-25T05:02:03.698Z,45.42
2017-06-25T05:03:12.998Z,46.09
2017-06-25T05:04:22.961Z,45.32
2017-06-25T05:05:32.751Z,45.51
2017-06-25T05:06:42.684Z,45.32
2017-06-25T05:07:52.601Z,45.71
2017-06-25T05:09:02.543Z,45.51
2017-06-25T05:10:12.472Z,45.42
2017-06-25T05:11:21.928Z,45.61
2017-06-25T05:12:32.174Z,45.51
2017-06-25T05:13:41.778Z,45.22
2017-06-25T05:14:51.698Z,45.42
2017-06-25T05:16:02.297Z,45.42
2017-06-25T05:17:11.352Z,45.22
2017-06-25T05:18:21.590Z,45.51
2017-06-25T05:19:31.514Z,45.42
2017-06-25T05:20:41.756Z,45.32
2017-06-25T05:21:51.684Z,45.42
2017-06-25T05:23:01.768Z,45.42
2017-06-25T05:24:11.092Z,45.51
2017-06-25T05:25:21.361Z,45.42
2017-06-25T05:26:31.306Z,45.61
2017-06-25T05:27:40.624Z,45.42
2017-06-25T05:28:51.015Z,45.42
2017-06-25T05:30:01.258Z,45.32
2017-06-25T05:31:11.189Z,45.51
2017-06-25T05:32:21.102Z,45.81
2017-06-25T05:33:31.033Z,45.42
2017-06-25T05:34:40.953Z,45.42
2017-06-25T05:35:50.269Z,45.51
2017-06-25T05:37:00.208Z,45.42
2017-06-25T05:38:10.137Z,45.51
2017-06-25T05:39:19.754Z,45.61
2017-06-25T05:40:29.841Z,45.61
2017-06-25T05:41:39.158Z,45.61
2017-06-25T05:42:48.480Z,45.42
2017-06-25T05:43:58.399Z,45.42
2017-06-25T05:45:08.319Z,45.13
2017-06-25T05:46:18.240Z,45.22
2017-06-25T05:47:28.249Z,45.32
2017-06-25T05:48:38.243Z,45.51
2017-06-25T05:49:48.182Z,45.32
2017-06-25T05:50:58.420Z,45.22
2017-06-25T05:52:08.774Z,45.32
2017-06-25T05:53:18.717Z,45.13
2017-06-25T05:54:28.635Z,45.13
2017-06-25T05:55:38.873Z,45.22
2017-06-25T05:56:48.497Z,45.22
2017-06-25T05:57:58.187Z,45.22
2017-06-25T05:59:08.479Z,45.61
2017-06-25T06:00:18.413Z,45.22
2017-06-25T06:01:28.641Z,45.42
2017-06-25T06:02:38.559Z,45.22
2017-06-25T06:03:48.191Z,45.51
2017-06-25T06:04:57.806Z,45.61
2017-06-25T06:06:07.436Z,45.61
2017-06-25T06:07:17.674Z,46
2017-06-25T06:08:26.983Z,46
2017-06-25T06:09:37.372Z,46
2017-06-25T06:10:47.286Z,45.9
2017-06-25T06:11:57.521Z,45.9
2017-06-25T06:13:07.454Z,46
2017-06-25T06:14:16.754Z,46
2017-06-25T06:15:26.523Z,46
2017-06-25T06:16:36.756Z,46.09
2017-06-25T06:17:46.373Z,46.09
2017-06-25T06:18:56.620Z,45.61
2017-06-25T06:20:06.574Z,45.61
2017-06-25T06:21:17.163Z,45.54
2017-06-25T06:22:27.084Z,45.73
2017-06-25T06:23:37.007Z,45.71
2017-06-25T06:24:46.927Z,45.71
2017-06-25T06:25:57.175Z,45.54
2017-06-25T06:27:07.778Z,45.34
2017-06-25T06:28:17.712Z,45.44
2017-06-25T06:29:27.319Z,44.96
2017-06-25T06:30:37.549Z,45.05
2017-06-25T06:31:47.479Z,44.96
2017-06-25T06:32:57.703Z,44.96
2017-06-25T06:34:07.941Z,45.15
2017-06-25T06:35:17.882Z,45.34
2017-06-25T06:36:27.197Z,45.34
2017-06-25T06:37:37.424Z,45.25
2017-06-25T06:38:47.802Z,45.44
2017-06-25T06:39:57.728Z,45.64
2017-06-25T06:41:07.343Z,45.34
2017-06-25T06:42:17.275Z,45.64
2017-06-25T06:43:26.584Z,45.15
2017-06-25T06:44:36.347Z,45.54
2017-06-25T06:45:46.269Z,45.64
2017-06-25T06:46:56.504Z,45.73
2017-06-25T06:48:06.149Z,45.64
2017-06-25T06:49:16.088Z,45.73
2017-06-25T06:50:25.828Z,45.54
2017-06-25T06:51:35.600Z,45.54
2017-06-25T06:52:45.206Z,45.83
2017-06-25T06:53:55.128Z,45.44
2017-06-25T06:55:05.349Z,45.15
2017-06-25T06:56:15.426Z,45.15
2017-06-25T06:57:25.329Z,45.34
2017-06-25T06:58:35.557Z,45.17
2017-06-25T06:59:45.525Z,45.17
2017-06-25T07:00:55.801Z,45.27
2017-06-25T07:02:05.877Z,44.78
2017-06-25T07:03:16.107Z,44.59
2017-06-25T07:04:26.029Z,44.78
2017-06-25T07:05:35.660Z,44.68
2017-06-25T07:06:45.900Z,44.78
2017-06-25T07:07:55.566Z,44.88
2017-06-25T07:09:05.169Z,44.88
2017-06-25T07:10:15.080Z,44.98
2017-06-25T07:11:24.390Z,45.07
2017-06-25T07:12:35.020Z,45.17
2017-06-25T07:13:44.977Z,44.78
2017-06-25T07:14:55.190Z,44.4
2017-06-25T07:16:04.487Z,44.49
2017-06-25T07:17:14.434Z,44.49
2017-06-25T07:18:24.752Z,44.4
2017-06-25T07:19:34.759Z,44.32
2017-06-25T07:20:44.761Z,44.42
2017-06-25T07:21:54.513Z,44.42
2017-06-25T07:23:04.547Z,44.32
2017-06-25T07:24:13.948Z,44.42
2017-06-25T07:25:24.934Z,44.32
2017-06-25T07:26:35.150Z,44.32
2017-06-25T07:27:44.773Z,44.32
2017-06-25T07:28:55.316Z,44.42
2017-06-25T07:30:05.234Z,44.42
2017-06-25T07:31:15.014Z,44.32
2017-06-25T07:32:26.007Z,44.51
2017-06-25T07:33:36.233Z,44.42
2017-06-25T07:34:46.603Z,44.32
2017-06-25T07:35:57.178Z,44.13
2017-06-25T07:37:07.827Z,44.61
2017-06-25T07:38:18.409Z,44.51
2017-06-25T07:39:28.634Z,44.32
2017-06-25T07:40:38.562Z,44.32
2017-06-25T07:41:48.853Z,44.42
2017-06-25T07:42:58.644Z,44.42
2017-06-25T07:44:08.859Z,44.42
2017-06-25T07:45:19.081Z,44.32
2017-06-25T07:46:29.028Z,44.15
2017-06-25T07:47:38.803Z,44.15
2017-06-25T07:48:48.772Z,44.05
2017-06-25T07:49:58.989Z,44.34
2017-06-25T07:51:08.599Z,44.34
2017-06-25T07:52:18.515Z,44.34
2017-06-25T07:53:28.453Z,44.24
2017-06-25T07:54:38.068Z,44.34
2017-06-25T07:55:47.989Z,44.34
2017-06-25T07:56:57.899Z,43.76
2017-06-25T07:58:07.530Z,43.86
2017-06-25T07:59:17.749Z,43.86
2017-06-25T08:00:27.965Z,43.86
2017-06-25T08:01:37.578Z,43.59
2017-06-25T08:02:47.198Z,43.1
2017-06-25T08:03:57.417Z,42.81
2017-06-25T08:05:07.474Z,42.54
2017-06-25T08:06:17.399Z,41.86
2017-06-25T08:07:27.001Z,40.91
2017-06-25T08:08:36.012Z,41.03
2017-06-25T08:09:46.238Z,41.03
2017-06-25T08:10:56.524Z,41.03
2017-06-25T08:12:07.127Z,40.64
2017-06-25T08:13:17.343Z,40.66
2017-06-25T08:14:26.668Z,40.95
2017-06-25T08:15:36.279Z,40.93
2017-06-25T08:16:46.038Z,41.03
2017-06-25T08:17:56.018Z,41.22
2017-06-25T08:19:05.634Z,41.51
2017-06-25T08:20:15.276Z,42.1
2017-06-25T08:21:25.494Z,42.08
2017-06-25T08:22:35.596Z,42.46
2017-06-25T08:23:45.501Z,42.56
2017-06-25T08:24:55.417Z,42.56
2017-06-25T08:26:04.705Z,42.93
2017-06-25T08:27:14.929Z,43.22
2017-06-25T08:28:24.627Z,44
2017-06-25T08:29:34.246Z,44.07
2017-06-25T08:30:43.859Z,44.37
2017-06-25T08:31:53.791Z,44.34
2017-06-25T08:33:03.768Z,44.34
2017-06-25T08:34:14.035Z,44.44
2017-06-25T08:35:23.641Z,44.44
2017-06-25T08:36:33.250Z,44.64
2017-06-25T08:37:43.170Z,44.15
2017-06-25T08:38:53.110Z,44.17
2017-06-25T08:40:03.501Z,44.37
2017-06-25T08:41:13.447Z,43.78
2017-06-25T08:42:23.700Z,43.88
2017-06-25T08:43:33.710Z,43.78
2017-06-25T08:44:43.644Z,43.98
2017-06-25T08:45:53.915Z,43.88
2017-06-25T08:47:03.824Z,43.22
2017-06-25T08:48:14.420Z,43.22
2017-06-25T08:49:24.686Z,43.22
2017-06-25T08:50:34.300Z,43.51
2017-06-25T08:51:44.521Z,43.22
2017-06-25T08:52:54.137Z,43.02
2017-06-25T08:54:03.753Z,43.02
2017-06-25T08:55:14.360Z,43.12
2017-06-25T08:56:23.971Z,43.12
2017-06-25T08:57:34.366Z,43.12
2017-06-25T08:58:44.277Z,43.15
2017-06-25T08:59:54.539Z,42.95
2017-06-25T09:01:04.498Z,42.66
2017-06-25T09:02:14.135Z,42.76
2017-06-25T09:03:23.907Z,42.85
2017-06-25T09:04:33.535Z,42.56
2017-06-25T09:05:43.752Z,43.15
2017-06-25T09:06:53.081Z,43.15
2017-06-25T09:08:03.072Z,43.22
2017-06-25T09:09:12.537Z,43.32
2017-06-25T09:10:22.158Z,43.8
2017-06-25T09:11:32.381Z,44.09
2017-06-25T09:12:42.304Z,43.88
2017-06-25T09:13:52.218Z,44.37
2017-06-25T09:15:02.504Z,44.17
2017-06-25T09:16:12.442Z,44.37
2017-06-25T09:17:22.293Z,44.37
2017-06-25T09:18:33.021Z,44.27
2017-06-25T09:19:43.065Z,44.46
2017-06-25T09:20:53.991Z,44.44
2017-06-25T09:22:04.525Z,44.73
2017-06-25T09:23:14.567Z,45.21
2017-06-25T09:24:24.173Z,44.92
2017-06-25T09:25:34.094Z,44.54
2017-06-25T09:26:44.233Z,45.12
2017-06-25T09:27:54.210Z,45.51
2017-06-25T09:29:04.120Z,45.48
2017-06-25T09:30:13.728Z,45.68
2017-06-25T09:31:23.341Z,46.07
2017-06-25T09:32:33.412Z,46.14
2017-06-25T09:33:43.012Z,46.62
2017-06-25T09:34:53.228Z,46.62
2017-06-25T09:36:03.165Z,46.92
2017-06-25T09:37:13.082Z,46.92
2017-06-25T09:38:22.994Z,47.38
2017-06-25T09:39:33.214Z,47.47
2017-06-25T09:40:43.123Z,47.38
2017-06-25T09:41:52.749Z,47.38
2017-06-25T09:43:02.576Z,47.57
2017-06-25T09:44:12.825Z,47.19
2017-06-25T09:45:22.832Z,47.77
2017-06-25T09:46:33.552Z,47.67
2017-06-25T09:47:43.782Z,47.64
2017-06-25T09:48:54.046Z,47.28
2017-06-25T09:50:04.291Z,47.55
2017-06-25T09:51:14.785Z,47.64
2017-06-25T09:52:24.084Z,47.45
2017-06-25T09:53:33.689Z,47.64
2017-06-25T09:54:43.705Z,47.45
2017-06-25T09:55:53.931Z,47.64
2017-06-25T09:57:04.161Z,47.26
2017-06-25T09:58:14.392Z,47.45
2017-06-25T09:59:24.610Z,47.36
2017-06-25T10:00:34.307Z,47.45
2017-06-25T10:01:43.924Z,47.55
2017-06-25T10:02:53.239Z,47.36
2017-06-25T10:04:04.032Z,47.45
2017-06-25T10:05:13.958Z,47.36
2017-06-25T10:06:23.882Z,47.16
2017-06-25T10:07:33.794Z,47.45
2017-06-25T10:08:43.415Z,47.45
2017-06-25T10:09:53.317Z,47.45
2017-06-25T10:11:02.632Z,47.45
2017-06-25T10:12:12.860Z,47.45
2017-06-25T10:13:23.085Z,47.26
2017-06-25T10:14:32.710Z,47.16
2017-06-25T10:15:42.932Z,47.16
2017-06-25T10:16:52.851Z,47.45
2017-06-25T10:18:03.059Z,47.36
2017-06-25T10:19:12.354Z,47.45
2017-06-25T10:20:22.571Z,47.45
2017-06-25T10:21:32.486Z,47.45
2017-06-25T10:22:42.727Z,47.16
2017-06-25T10:23:52.641Z,47.55
2017-06-25T10:25:02.854Z,47.45
2017-06-25T10:26:12.498Z,47.45
2017-06-25T10:27:22.713Z,47.55
2017-06-25T10:28:32.632Z,47.55
2017-06-25T10:29:42.848Z,47.26
2017-06-25T10:30:52.466Z,47.45
2017-06-25T10:32:02.121Z,47.45
2017-06-25T10:33:12.348Z,47.45
2017-06-25T10:34:21.658Z,47.45
2017-06-25T10:35:31.270Z,47.24
2017-06-25T10:36:41.188Z,47.52
2017-06-25T10:37:51.126Z,47.24
2017-06-25T10:39:01.357Z,47.52
2017-06-25T10:40:11.270Z,47.24
2017-06-25T10:41:20.882Z,47.24
2017-06-25T10:42:30.512Z,47.64
2017-06-25T10:43:40.441Z,46.77
2017-06-25T10:44:50.919Z,46.58
2017-06-25T10:46:00.909Z,46.77
2017-06-25T10:47:10.858Z,46.87
2017-06-25T10:48:20.792Z,46.87
2017-06-25T10:49:30.402Z,47.45
2017-06-25T10:50:40.318Z,47.24
2017-06-25T10:51:50.547Z,46.94
2017-06-25T10:53:00.465Z,46.66
2017-06-25T10:54:10.389Z,46.84
2017-06-25T10:55:20.613Z,46.58
2017-06-25T10:56:30.839Z,46.46
2017-06-25T10:57:40.776Z,46.84
2017-06-25T10:58:50.371Z,46.94
2017-06-25T11:00:00.585Z,46.75
2017-06-25T11:01:10.497Z,47.33
2017-06-25T11:02:20.407Z,47.24
2017-06-25T11:03:30.310Z,47.33
2017-06-25T11:04:40.217Z,47.52
2017-06-25T11:05:50.128Z,46.46
2017-06-25T11:07:00.048Z,46.56
2017-06-25T11:08:10.265Z,46.66
2017-06-25T11:09:20.175Z,46.58
2017-06-25T11:10:30.391Z,46.36
2017-06-25T11:11:40.310Z,46.39
2017-06-25T11:12:50.560Z,46.56
2017-06-25T11:14:00.794Z,46.67
2017-06-25T11:15:10.416Z,46.56
2017-06-25T11:16:20.655Z,46.36
2017-06-25T11:17:30.570Z,46.09
2017-06-25T11:18:40.172Z,46.19
2017-06-25T11:19:49.775Z,45.81
2017-06-25T11:20:59.709Z,45.81
2017-06-25T11:22:09.933Z,46
2017-06-25T11:23:19.852Z,45.9
2017-06-25T11:24:29.450Z,46.19
2017-06-25T11:25:39.774Z,46.29
2017-06-25T11:26:49.059Z,45.51
2017-06-25T11:27:58.672Z,45.9
2017-06-25T11:29:08.268Z,45.81
2017-06-25T11:30:18.177Z,46
2017-06-25T11:31:27.789Z,45.61
2017-06-25T11:32:37.698Z,45.13
2017-06-25T11:33:47.290Z,45.22
2017-06-25T11:34:56.587Z,45.42
2017-06-25T11:36:06.513Z,45.22
2017-06-25T11:37:16.733Z,44.93
2017-06-25T11:38:26.663Z,45.13
2017-06-25T11:39:36.262Z,44.93
2017-06-25T11:40:45.873Z,45.13
2017-06-25T11:41:54.857Z,45.03
2017-06-25T11:43:05.071Z,44.84
2017-06-25T11:44:15.284Z,44.76
2017-06-25T11:45:24.893Z,44.86
2017-06-25T11:46:34.807Z,44.76
2017-06-25T11:47:44.117Z,44.86
2017-06-25T11:48:53.733Z,44.86
2017-06-25T11:50:03.346Z,44.76
2017-06-25T11:51:13.259Z,44.93
2017-06-25T11:52:23.161Z,45.05
2017-06-25T11:53:33.394Z,44.96
2017-06-25T11:54:42.999Z,44.35
2017-06-25T11:55:51.979Z,44.37
2017-06-25T11:57:01.276Z,44.45
2017-06-25T11:58:11.196Z,44.37
2017-06-25T11:59:20.801Z,44.37
2017-06-25T12:00:30.096Z,44.37
2017-06-25T12:01:39.706Z,44.27
2017-06-25T12:02:49.016Z,44.09
2017-06-25T12:03:58.614Z,44.18
2017-06-25T12:05:08.219Z,44.57
2017-06-25T12:06:17.523Z,44.09
2017-06-25T12:07:27.447Z,44.47
2017-06-25T12:08:36.745Z,44.09
2017-06-25T12:09:46.660Z,44.18
2017-06-25T12:10:56.626Z,43.89
2017-06-25T12:12:05.959Z,44.09
2017-06-25T12:13:15.589Z,44.18
2017-06-25T12:14:25.503Z,43.89
2017-06-25T12:15:35.429Z,43.99
2017-06-25T12:16:45.331Z,44.47
2017-06-25T12:17:55.262Z,44.37
2017-06-25T12:19:05.532Z,44.37
2017-06-25T12:20:15.165Z,44.27
2017-06-25T12:21:25.073Z,44.27
2017-06-25T12:22:35.001Z,44.27
2017-06-25T12:23:44.904Z,44.26
2017-06-25T12:24:54.816Z,44.45
2017-06-25T12:26:03.817Z,44.35
2017-06-25T12:27:13.118Z,44.26
2017-06-25T12:28:23.027Z,44.16
2017-06-25T12:29:31.704Z,44.06
2017-06-25T12:30:41.641Z,44.35
2017-06-25T12:31:51.238Z,44.26
2017-06-25T12:33:01.467Z,44.09
2017-06-25T12:34:11.070Z,44.27
2017-06-25T12:35:21.275Z,44.09
2017-06-25T12:36:30.909Z,43.79
2017-06-25T12:37:41.156Z,43.7
2017-06-25T12:38:51.101Z,43.79
2017-06-25T12:40:01.099Z,43.89
2017-06-25T12:41:11.344Z,43.89
2017-06-25T12:42:21.254Z,43.89
2017-06-25T12:43:31.160Z,43.7
2017-06-25T12:44:40.460Z,43.21
2017-06-25T12:45:49.757Z,43.21
2017-06-25T12:46:59.975Z,43.21
2017-06-25T12:48:09.589Z,43.13
2017-06-25T12:49:19.496Z,42.94
2017-06-25T12:50:29.413Z,43.33
2017-06-25T12:51:39.625Z,43.31
2017-06-25T12:52:49.842Z,43.33
2017-06-25T12:54:00.052Z,42.94
2017-06-25T12:55:09.650Z,43.04
2017-06-25T12:56:19.253Z,43.04
2017-06-25T12:57:29.458Z,43.33
2017-06-25T12:58:39.379Z,43.33
2017-06-25T12:59:49.299Z,43.23
2017-06-25T13:00:58.893Z,42.94
2017-06-25T13:02:09.345Z,42.92
2017-06-25T13:03:18.639Z,43.04
2017-06-25T13:04:28.546Z,43.04
2017-06-25T13:05:38.466Z,42.85
2017-06-25T13:06:48.540Z,42.85
2017-06-25T13:07:58.467Z,42.75
2017-06-25T13:09:08.088Z,42.85
2017-06-25T13:10:17.400Z,42.85
2017-06-25T13:11:27.632Z,43.13
2017-06-25T13:12:37.689Z,43.23
2017-06-25T13:13:47.918Z,43.13
2017-06-25T13:14:57.854Z,43.23
2017-06-25T13:16:08.082Z,43.04
2017-06-25T13:17:18.288Z,42.94
2017-06-25T13:18:27.899Z,42.46
2017-06-25T13:19:38.129Z,42.36
2017-06-25T13:20:48.036Z,42.75
2017-06-25T13:21:57.336Z,42.85
2017-06-25T13:23:06.938Z,42.75
2017-06-25T13:24:16.855Z,42.65
2017-06-25T13:25:27.074Z,42.94
2017-06-25T13:26:36.392Z,43.04
2017-06-25T13:27:46.313Z,43.02
2017-06-25T13:28:55.919Z,43.31
2017-06-25T13:30:05.231Z,43.31
2017-06-25T13:31:15.143Z,43.31
2017-06-25T13:32:25.383Z,43.21
2017-06-25T13:33:34.990Z,43.31
2017-06-25T13:34:44.300Z,43.31
2017-06-25T13:35:54.213Z,43.31
2017-06-25T13:37:03.508Z,43.31
2017-06-25T13:38:13.739Z,43.41
2017-06-25T13:39:23.669Z,43.21
2017-06-25T13:40:33.896Z,43.21
2017-06-25T13:41:43.544Z,43.02
2017-06-25T13:42:53.770Z,43.02
2017-06-25T13:44:03.079Z,42.82
2017-06-25T13:45:13.001Z,42.92
2017-06-25T13:46:22.911Z,42.72
2017-06-25T13:47:32.222Z,42.63
2017-06-25T13:48:41.826Z,42.72
2017-06-25T13:49:52.034Z,43.02
2017-06-25T13:51:02.243Z,42.82
2017-06-25T13:52:12.151Z,42.92
2017-06-25T13:53:22.633Z,42.82
2017-06-25T13:54:32.243Z,42.34
2017-06-25T13:55:42.166Z,42.72
2017-06-25T13:56:51.923Z,42.63
2017-06-25T13:58:01.608Z,42.82
2017-06-25T13:59:11.817Z,42.82
2017-06-25T14:00:21.833Z,42.63
2017-06-25T14:01:31.127Z,42.63
2017-06-25T14:02:41.362Z,42.44
2017-06-25T14:03:51.271Z,42.54
2017-06-25T14:05:01.490Z,42.54
2017-06-25T14:06:11.696Z,42.63
2017-06-25T14:07:21.320Z,42.63
2017-06-25T14:08:31.252Z,42.72
2017-06-25T14:09:41.173Z,42.34
2017-06-25T14:10:51.557Z,42.44
2017-06-25T14:12:01.185Z,42.54
2017-06-25T14:13:11.088Z,42.54
2017-06-25T14:14:21.008Z,42.54
2017-06-25T14:15:31.247Z,42.54
2017-06-25T14:16:40.867Z,42.72
2017-06-25T14:17:51.127Z,42.72
2017-06-25T14:19:01.035Z,42.72
2017-06-25T14:20:10.977Z,42.72
2017-06-25T14:21:21.524Z,42.63
2017-06-25T14:22:31.470Z,42.63
2017-06-25T14:23:41.682Z,42.63
2017-06-25T14:24:51.901Z,42.82
2017-06-25T14:26:01.505Z,42.54
2017-06-25T14:27:11.421Z,42.54
2017-06-25T14:28:21.639Z,42.44
2017-06-25T14:29:31.864Z,41.95
2017-06-25T14:30:41.171Z,42.55
2017-06-25T14:31:50.782Z,42.44
2017-06-25T14:33:00.694Z,42.54
2017-06-25T14:34:10.003Z,42.46
2017-06-25T14:35:19.619Z,42.34
2017-06-25T14:36:29.244Z,42.44
2017-06-25T14:37:39.154Z,42.54
2017-06-25T14:38:48.789Z,42.34
2017-06-25T14:39:58.685Z,42.14
2017-06-25T14:41:08.927Z,42.24
2017-06-25T14:42:19.151Z,42.34
2017-06-25T14:43:28.760Z,42.34
2017-06-25T14:44:38.980Z,42.54
2017-06-25T14:45:49.192Z,42.44
2017-06-25T14:46:59.413Z,42.82
2017-06-25T14:48:09.320Z,42.72
2017-06-25T14:49:19.254Z,42.54
2017-06-25T14:50:29.474Z,42.54
2017-06-25T14:51:39.375Z,42.8
2017-06-25T14:52:48.675Z,43.02
2017-06-25T14:53:58.591Z,43.02
2017-06-25T14:55:08.536Z,42.9
2017-06-25T14:56:18.155Z,42.92
2017-06-25T14:57:28.076Z,43.02
2017-06-25T14:58:38.994Z,43.12
2017-06-25T14:59:49.406Z,43
2017-06-25T15:00:59.323Z,42.9
2017-06-25T15:02:09.242Z,42.9
2017-06-25T15:03:18.854Z,43
2017-06-25T15:04:29.069Z,43